createdAt,value
2023-03-31T00:01:04.705Z,1.60
2023-03-31T00:03:34.300Z,2.13
2023-03-31T00:06:03.969Z,3.00
2023-03-31T00:08:35.790Z,2.57
2023-03-31T00:11:07.300Z,2.20
2023-03-31T00:13:36.713Z,2.40
2023-03-31T00:16:07.497Z,2.83
2023-03-31T00:18:36.188Z,2.10
2023-03-31T00:21:14.706Z,2.97
2023-03-31T00:23:43.112Z,3.50
2023-03-31T00:26:11.515Z,2.00
2023-03-31T00:28:39.375Z,2.23
2023-03-31T00:31:07.363Z,2.20
2023-03-31T00:33:35.263Z,1.87
2023-03-31T00:36:06.455Z,2.03
2023-03-31T00:38:36.775Z,1.80
2023-03-31T00:41:06.521Z,1.70
2023-03-31T00:43:36.039Z,2.03
2023-03-31T00:46:18.096Z,2.50
2023-03-31T00:48:50.969Z,3.17
2023-03-31T00:51:21.677Z,2.60
2023-03-31T00:53:57.514Z,2.00
2023-03-31T00:56:26.619Z,1.90
2023-03-31T00:58:58.024Z,1.93
2023-03-31T01:01:26.714Z,1.87
2023-03-31T01:03:55.082Z,2.20
2023-03-31T01:06:23.891Z,3.50
2023-03-31T01:08:53.453Z,3.10
2023-03-31T01:11:24.454Z,4.53
2023-03-31T01:13:56.220Z,2.93
2023-03-31T01:16:24.436Z,2.97
2023-03-31T01:18:52.426Z,2.40
2023-03-31T01:21:57.084Z,2.53
2023-03-31T01:25:01.742Z,2.30
2023-03-31T01:27:54.114Z,2.03
2023-03-31T01:30:54.713Z,2.20
2023-03-31T01:33:58.365Z,2.23
2023-03-31T01:36:58.957Z,1.80
2023-03-31T01:40:14.425Z,2.60
2023-03-31T01:42:53.688Z,2.67
2023-03-31T01:45:33.824Z,2.13
2023-03-31T01:48:08.941Z,2.50
2023-03-31T01:50:41.268Z,2.80
2023-03-31T01:53:17.880Z,2.97
2023-03-31T01:55:51.872Z,2.87
2023-03-31T01:58:24.536Z,2.97
2023-03-31T02:01:01.896Z,3.53
2023-03-31T02:03:34.575Z,2.57
2023-03-31T02:06:09.725Z,2.70
2023-03-31T02:08:42.405Z,2.40
2023-03-31T02:11:11.100Z,2.83
2023-03-31T02:13:44.619Z,3.10
2023-03-31T02:16:19.094Z,2.43
2023-03-31T02:18:50.106Z,2.60
2023-03-31T02:21:18.575Z,2.30
2023-03-31T02:23:46.931Z,2.47
2023-03-31T02:26:17.237Z,2.87
2023-03-31T02:28:46.739Z,3.00
2023-03-31T02:31:24.867Z,3.07
2023-03-31T02:33:52.893Z,3.10
2023-03-31T02:36:21.888Z,3.13
2023-03-31T02:38:56.310Z,3.40
2023-03-31T02:41:24.402Z,3.00
2023-03-31T02:43:53.782Z,2.80
2023-03-31T02:46:22.519Z,2.73
2023-03-31T02:48:54.505Z,3.27
2023-03-31T02:51:46.850Z,3.03
2023-03-31T02:54:27.515Z,2.97
2023-03-31T02:57:16.288Z,3.33
2023-03-31T02:59:59.373Z,3.10
2023-03-31T03:02:38.352Z,3.00
2023-03-31T03:05:20.460Z,3.80
2023-03-31T03:07:55.922Z,3.53
2023-03-31T03:10:36.452Z,3.03
2023-03-31T03:13:11.060Z,3.60
2023-03-31T03:15:46.292Z,3.33
2023-03-31T03:18:15.000Z,3.47
2023-03-31T03:20:48.614Z,3.50
2023-03-31T03:23:16.900Z,3.63
2023-03-31T03:25:46.118Z,3.40
2023-03-31T03:28:14.201Z,4.03
2023-03-31T03:30:43.471Z,3.93
2023-03-31T03:33:17.037Z,4.17
2023-03-31T03:35:45.086Z,4.07
2023-03-31T03:38:12.946Z,4.10
2023-03-31T03:40:40.805Z,4.57
2023-03-31T03:43:08.663Z,4.40
2023-03-31T03:45:36.521Z,4.57
2023-03-31T03:48:06.227Z,4.90
2023-03-31T03:50:37.692Z,4.90
2023-03-31T03:53:05.577Z,4.50
2023-03-31T03:55:33.473Z,4.80
2023-03-31T03:58:01.390Z,4.20
2023-03-31T04:00:29.556Z,4.63
2023-03-31T04:02:57.439Z,4.83
2023-03-31T04:05:26.742Z,5.27
2023-03-31T04:07:54.666Z,4.30
2023-03-31T04:10:22.533Z,5.43
2023-03-31T04:12:50.515Z,4.87
2023-03-31T04:15:18.530Z,5.17
2023-03-31T04:17:51.167Z,5.00
2023-03-31T04:20:19.854Z,5.10
2023-03-31T04:22:50.790Z,4.97
2023-03-31T04:25:18.746Z,5.00
2023-03-31T04:27:54.894Z,5.00
2023-03-31T04:30:31.091Z,5.20
2023-03-31T04:33:01.182Z,5.57
2023-03-31T04:35:48.178Z,5.23
2023-03-31T04:38:19.686Z,4.90
2023-03-31T04:40:48.879Z,4.83
2023-03-31T04:43:17.384Z,5.10
2023-03-31T04:45:45.924Z,4.90
2023-03-31T04:48:14.357Z,5.60
2023-03-31T04:50:42.362Z,5.80
2023-03-31T04:53:10.394Z,4.73
2023-03-31T04:55:39.623Z,5.40
2023-03-31T04:58:07.482Z,5.77
2023-03-31T05:00:35.371Z,5.70
2023-03-31T05:03:03.575Z,5.23
2023-03-31T05:05:31.578Z,5.53
2023-03-31T05:07:59.559Z,5.33
2023-03-31T05:10:27.581Z,5.77
2023-03-31T05:12:56.969Z,5.63
2023-03-31T05:15:25.569Z,5.67
2023-03-31T05:17:54.021Z,5.20
2023-03-31T05:20:22.313Z,5.70
2023-03-31T05:22:50.817Z,5.50
2023-03-31T05:25:19.617Z,6.10
2023-03-31T05:27:48.390Z,6.13
2023-03-31T05:30:18.982Z,6.40
2023-03-31T05:32:46.899Z,6.20
2023-03-31T05:35:14.803Z,6.77
2023-03-31T05:37:42.662Z,6.20
2023-03-31T05:40:11.640Z,6.50
2023-03-31T05:42:39.650Z,6.50
2023-03-31T05:45:09.453Z,6.50
2023-03-31T05:47:38.838Z,6.70
2023-03-31T05:50:09.322Z,6.67
2023-03-31T05:52:37.891Z,6.57
2023-03-31T05:55:06.206Z,7.43
2023-03-31T05:57:34.099Z,7.20
2023-03-31T06:00:02.367Z,6.77
2023-03-31T06:02:30.473Z,7.20
2023-03-31T06:04:59.790Z,7.07
2023-03-31T06:07:27.666Z,6.63
2023-03-31T06:09:55.570Z,6.60
2023-03-31T06:12:23.472Z,6.70
2023-03-31T06:14:51.312Z,6.70
2023-03-31T06:17:19.198Z,6.90
2023-03-31T06:19:47.045Z,6.60
2023-03-31T06:22:16.566Z,6.67
2023-03-31T06:24:44.434Z,7.37
2023-03-31T06:27:12.319Z,7.07
2023-03-31T06:29:41.398Z,7.23
2023-03-31T06:32:09.274Z,7.57
2023-03-31T06:34:37.211Z,6.57
2023-03-31T06:37:05.090Z,6.63
2023-03-31T06:39:34.390Z,6.70
2023-03-31T06:42:02.335Z,6.93
2023-03-31T06:44:30.803Z,6.77
2023-03-31T06:46:58.808Z,6.43
2023-03-31T06:49:26.735Z,6.33
2023-03-31T06:51:54.575Z,7.07
2023-03-31T06:54:22.597Z,7.00
2023-03-31T06:56:51.892Z,6.70
2023-03-31T06:59:19.830Z,6.63
2023-03-31T07:01:48.888Z,6.83
2023-03-31T07:04:16.914Z,6.70
2023-03-31T07:06:44.835Z,6.90
2023-03-31T07:09:12.697Z,6.70
2023-03-31T07:11:40.549Z,7.13
2023-03-31T07:14:10.054Z,7.03
2023-03-31T07:16:38.118Z,6.63
2023-03-31T07:19:06.086Z,7.03
2023-03-31T07:21:33.936Z,7.03
2023-03-31T07:24:01.816Z,6.77
2023-03-31T07:26:29.674Z,7.03
2023-03-31T07:28:57.824Z,6.70
2023-03-31T07:31:27.304Z,6.03
2023-03-31T07:33:55.193Z,6.90
2023-03-31T07:36:23.092Z,6.80
2023-03-31T07:38:51.112Z,6.10
2023-03-31T07:41:21.472Z,7.23
2023-03-31T07:43:50.635Z,6.60
2023-03-31T07:46:20.492Z,7.30
2023-03-31T07:48:50.694Z,7.47
2023-03-31T07:51:20.583Z,7.70
2023-03-31T07:53:49.557Z,7.17
2023-03-31T07:56:18.046Z,6.60
2023-03-31T07:58:46.430Z,7.03
2023-03-31T08:01:17.157Z,7.07
2023-03-31T08:03:45.544Z,6.73
2023-03-31T08:06:19.345Z,7.00
2023-03-31T08:08:47.496Z,7.23
2023-03-31T08:11:15.491Z,6.47
2023-03-31T08:13:43.465Z,6.73
2023-03-31T08:16:11.512Z,7.33
2023-03-31T08:18:39.414Z,6.93
2023-03-31T08:21:09.769Z,7.13
2023-03-31T08:23:39.111Z,7.23
2023-03-31T08:26:13.990Z,7.03
2023-03-31T08:28:43.573Z,7.30
2023-03-31T08:31:11.871Z,7.00
2023-03-31T08:33:40.561Z,7.47
2023-03-31T08:36:11.035Z,7.30
2023-03-31T08:38:42.124Z,6.77
2023-03-31T08:41:31.672Z,7.40
2023-03-31T08:44:04.603Z,6.97
2023-03-31T08:46:35.618Z,7.50
2023-03-31T08:49:06.007Z,7.40
2023-03-31T08:51:37.984Z,6.43
2023-03-31T08:54:13.821Z,7.10
2023-03-31T08:56:45.420Z,7.17
2023-03-31T08:59:22.058Z,7.07
2023-03-31T09:01:56.814Z,7.10
2023-03-31T09:04:51.872Z,7.03
2023-03-31T09:07:32.195Z,7.13
2023-03-31T09:10:08.976Z,7.40
2023-03-31T09:12:43.022Z,7.50
2023-03-31T09:15:15.953Z,6.90
2023-03-31T09:17:47.372Z,7.53
2023-03-31T09:20:20.292Z,7.30
2023-03-31T09:22:50.978Z,6.67
2023-03-31T09:25:24.692Z,6.80
2023-03-31T09:27:54.113Z,6.50
2023-03-31T09:30:26.076Z,5.80
2023-03-31T09:33:00.400Z,6.07
2023-03-31T09:35:29.541Z,6.00
2023-03-31T09:37:58.411Z,5.83
2023-03-31T09:40:29.896Z,5.70
2023-03-31T09:43:00.752Z,5.70
2023-03-31T09:45:30.795Z,5.80
2023-03-31T09:48:02.112Z,5.47
2023-03-31T09:50:31.528Z,5.07
2023-03-31T09:53:01.950Z,5.23
2023-03-31T09:55:43.098Z,5.33
2023-03-31T09:58:15.177Z,5.23
2023-03-31T10:00:44.811Z,4.90
2023-03-31T10:03:14.807Z,4.93
2023-03-31T10:05:51.890Z,4.90
2023-03-31T10:08:27.342Z,4.97
2023-03-31T10:10:58.810Z,4.27
2023-03-31T10:13:29.555Z,5.00
2023-03-31T10:16:04.378Z,4.43
2023-03-31T10:18:36.327Z,5.23
2023-03-31T10:21:06.740Z,4.80
2023-03-31T10:23:36.716Z,4.50
2023-03-31T10:26:06.794Z,4.63
2023-03-31T10:28:37.258Z,4.13
2023-03-31T10:31:06.507Z,4.20
2023-03-31T10:33:35.789Z,4.20
2023-03-31T10:36:09.311Z,4.00
2023-03-31T10:38:41.141Z,4.30
2023-03-31T10:41:11.102Z,4.20
2023-03-31T10:43:42.209Z,4.43
2023-03-31T10:46:10.884Z,4.40
2023-03-31T10:48:41.605Z,4.67
2023-03-31T10:51:16.786Z,4.80
2023-03-31T10:53:47.193Z,4.33
2023-03-31T10:56:28.837Z,4.60
2023-03-31T10:59:20.614Z,4.87
2023-03-31T11:02:03.118Z,5.27
2023-03-31T11:04:47.742Z,5.00
2023-03-31T11:07:29.565Z,5.30
2023-03-31T11:10:11.524Z,5.10
2023-03-31T11:12:51.868Z,5.17
2023-03-31T11:15:26.672Z,5.00
2023-03-31T11:18:12.643Z,4.77
2023-03-31T11:20:49.773Z,4.80
2023-03-31T11:23:26.598Z,4.40
2023-03-31T11:26:02.271Z,4.67
2023-03-31T11:28:50.348Z,3.63
2023-03-31T11:31:29.727Z,3.50
2023-03-31T11:34:14.889Z,2.93
2023-03-31T11:37:19.592Z,3.30
2023-03-31T11:39:58.677Z,3.40
2023-03-31T11:42:30.097Z,2.80
2023-03-31T11:45:06.579Z,2.40
2023-03-31T11:47:38.877Z,2.67
2023-03-31T11:50:12.727Z,2.60
2023-03-31T11:52:43.141Z,2.63
2023-03-31T11:55:17.768Z,2.20
2023-03-31T11:57:49.454Z,2.10
2023-03-31T12:00:22.270Z,2.40
2023-03-31T12:02:55.969Z,2.23
2023-03-31T12:05:27.832Z,2.60
2023-03-31T12:08:03.021Z,2.10
2023-03-31T12:10:36.768Z,2.33
2023-03-31T12:13:19.371Z,2.03
2023-03-31T12:16:01.448Z,1.87
2023-03-31T12:18:36.001Z,1.93
2023-03-31T12:21:06.255Z,1.80
2023-03-31T12:23:40.318Z,2.00
2023-03-31T12:26:16.476Z,1.87
2023-03-31T12:28:47.501Z,2.00
2023-03-31T12:31:22.908Z,1.87
2023-03-31T12:33:57.073Z,1.57
2023-03-31T12:36:42.592Z,1.67
2023-03-31T12:39:24.234Z,1.47
2023-03-31T12:42:11.277Z,1.57
2023-03-31T12:44:51.138Z,1.67
2023-03-31T12:47:36.146Z,1.77
2023-03-31T12:50:24.178Z,1.40
2023-03-31T12:53:01.479Z,1.40
2023-03-31T12:55:37.466Z,0.97
2023-03-31T12:58:40.720Z,1.37
2023-03-31T13:01:22.726Z,1.40
2023-03-31T13:04:10.450Z,0.80
2023-03-31T13:06:59.840Z,0.77
2023-03-31T13:09:48.104Z,0.80
2023-03-31T13:12:19.465Z,1.10
2023-03-31T13:14:51.661Z,0.87
2023-03-31T13:17:26.304Z,0.53
2023-03-31T13:19:57.561Z,0.90
2023-03-31T13:22:34.800Z,0.90
2023-03-31T13:25:48.568Z,0.80
2023-03-31T13:28:28.932Z,0.90
2023-03-31T13:31:01.920Z,0.87
2023-03-31T13:33:57.150Z,0.80
2023-03-31T13:36:51.062Z,0.80
2023-03-31T13:39:50.312Z,1.13
2023-03-31T13:42:39.765Z,1.20
2023-03-31T13:45:26.642Z,1.13
2023-03-31T13:48:05.319Z,1.40
2023-03-31T13:50:54.594Z,1.23
2023-03-31T13:53:42.749Z,1.40
2023-03-31T13:56:25.131Z,1.17
2023-03-31T13:59:14.604Z,0.63
2023-03-31T14:02:07.066Z,0.90
2023-03-31T14:05:01.031Z,1.47
2023-03-31T14:07:33.494Z,0.90
2023-03-31T14:10:04.430Z,1.13
2023-03-31T14:12:34.542Z,0.87
2023-03-31T14:15:03.545Z,1.00
2023-03-31T14:17:34.818Z,1.03
2023-03-31T14:20:23.526Z,1.10
2023-03-31T14:23:02.327Z,3.87
2023-03-31T14:25:42.931Z,2.00
2023-03-31T14:28:34.730Z,2.60
2023-03-31T14:31:13.615Z,3.83
2023-03-31T14:33:49.231Z,1.47
2023-03-31T14:36:28.493Z,1.77
2023-03-31T14:39:03.530Z,1.27
2023-03-31T14:41:33.675Z,1.20
2023-03-31T14:44:04.091Z,1.37
2023-03-31T14:46:33.851Z,1.30
2023-03-31T14:49:08.793Z,2.30
2023-03-31T14:51:36.883Z,1.17
2023-03-31T14:54:05.067Z,1.13
2023-03-31T14:56:39.269Z,1.40
2023-03-31T14:59:09.537Z,1.43
2023-03-31T15:01:39.446Z,1.10
2023-03-31T15:04:11.780Z,1.27
2023-03-31T15:06:42.358Z,1.10
2023-03-31T15:09:19.826Z,0.90
2023-03-31T15:11:54.507Z,1.03
2023-03-31T15:14:22.758Z,0.90
2023-03-31T15:16:51.709Z,1.00
2023-03-31T15:19:22.898Z,1.27
2023-03-31T15:21:56.699Z,1.57
2023-03-31T15:24:24.924Z,1.37
2023-03-31T15:26:59.879Z,1.43
2023-03-31T15:29:36.750Z,1.20
2023-03-31T15:32:08.126Z,1.20
2023-03-31T15:34:37.154Z,1.20
2023-03-31T15:37:08.793Z,1.37
2023-03-31T15:39:38.796Z,1.83
2023-03-31T15:42:09.733Z,1.03
2023-03-31T15:44:40.002Z,1.17
2023-03-31T15:47:13.992Z,1.50
2023-03-31T15:49:50.363Z,1.17
2023-03-31T15:52:29.686Z,1.10
2023-03-31T15:54:58.380Z,0.97
2023-03-31T15:57:35.469Z,0.97
2023-03-31T16:00:07.997Z,1.17
2023-03-31T16:02:44.014Z,1.00
2023-03-31T16:05:37.406Z,1.10
2023-03-31T16:08:15.970Z,1.10
2023-03-31T16:10:44.209Z,1.00
2023-03-31T16:13:23.147Z,1.30
2023-03-31T16:15:54.715Z,1.97
2023-03-31T16:18:29.724Z,2.20
2023-03-31T16:21:01.512Z,1.40
2023-03-31T16:23:32.220Z,1.60
2023-03-31T16:26:00.929Z,1.80
2023-03-31T16:28:32.886Z,1.63
2023-03-31T16:31:02.134Z,1.80
2023-03-31T16:33:31.449Z,2.10
2023-03-31T16:35:59.764Z,1.20
2023-03-31T16:38:30.456Z,1.10
2023-03-31T16:41:00.524Z,1.30
2023-03-31T16:43:31.422Z,1.50
2023-03-31T16:46:01.601Z,1.43
2023-03-31T16:48:30.560Z,1.70
2023-03-31T16:50:59.984Z,1.80
2023-03-31T16:53:29.469Z,1.60
2023-03-31T16:55:57.759Z,1.77
2023-03-31T16:58:28.375Z,2.00
2023-03-31T17:00:58.473Z,2.20
2023-03-31T17:03:27.472Z,1.90
2023-03-31T17:05:58.995Z,1.70
2023-03-31T17:08:28.584Z,1.40
2023-03-31T17:10:58.344Z,1.03
2023-03-31T17:13:26.406Z,1.20
2023-03-31T17:16:01.293Z,1.30
2023-03-31T17:18:37.877Z,1.90
2023-03-31T17:21:07.891Z,1.50
2023-03-31T17:23:36.309Z,1.47
2023-03-31T17:26:05.221Z,1.20
2023-03-31T17:28:33.395Z,1.03
2023-03-31T17:31:01.894Z,1.30
2023-03-31T17:33:29.876Z,1.50
2023-03-31T17:35:59.575Z,1.63
2023-03-31T17:38:27.896Z,1.37
2023-03-31T17:40:56.131Z,1.63
2023-03-31T17:43:23.977Z,2.00
2023-03-31T17:45:51.962Z,1.70
2023-03-31T17:48:19.879Z,1.60
2023-03-31T17:50:47.819Z,1.03
2023-03-31T17:53:17.500Z,1.13
2023-03-31T17:55:45.950Z,1.10
2023-03-31T17:58:13.818Z,0.90
2023-03-31T18:00:42.204Z,1.20
2023-03-31T18:03:10.839Z,1.00
2023-03-31T18:05:39.375Z,1.00
2023-03-31T18:08:07.290Z,1.00
2023-03-31T18:10:39.774Z,1.00
2023-03-31T18:13:09.820Z,1.13
2023-03-31T18:15:37.858Z,1.40
2023-03-31T18:18:07.370Z,1.20
2023-03-31T18:20:35.684Z,1.10
2023-03-31T18:23:04.689Z,0.83
2023-03-31T18:25:32.714Z,1.33
2023-03-31T18:28:02.325Z,1.03
2023-03-31T18:30:30.423Z,0.80
2023-03-31T18:32:59.085Z,0.80
2023-03-31T18:35:27.552Z,1.20
2023-03-31T18:37:55.669Z,1.47
2023-03-31T18:40:23.677Z,1.40
2023-03-31T18:42:51.993Z,1.20
2023-03-31T18:45:21.313Z,1.10
2023-03-31T18:47:49.352Z,1.50
2023-03-31T18:50:17.588Z,1.80
2023-03-31T18:52:47.527Z,2.00
2023-03-31T18:55:15.601Z,1.93
2023-03-31T18:57:43.444Z,1.70
2023-03-31T19:00:12.417Z,1.50
2023-03-31T19:02:42.274Z,1.77
2023-03-31T19:05:11.152Z,1.40
2023-03-31T19:07:39.491Z,1.70
2023-03-31T19:10:08.429Z,1.70
2023-03-31T19:12:36.302Z,1.80
2023-03-31T19:15:04.446Z,1.90
2023-03-31T19:17:33.019Z,1.87
2023-03-31T19:20:02.518Z,2.17
2023-03-31T19:22:30.796Z,1.50
2023-03-31T19:24:58.694Z,1.73
2023-03-31T19:27:27.794Z,1.90
2023-03-31T19:29:55.928Z,2.00
2023-03-31T19:32:23.811Z,1.90
2023-03-31T19:34:52.726Z,2.07
2023-03-31T19:37:22.187Z,2.43
2023-03-31T19:39:50.197Z,2.73
2023-03-31T19:42:18.060Z,2.73
2023-03-31T19:44:46.460Z,2.80
2023-03-31T19:47:14.484Z,1.83
2023-03-31T19:49:42.310Z,1.60
2023-03-31T19:52:10.160Z,1.37
2023-03-31T19:54:39.467Z,1.53
2023-03-31T19:57:08.938Z,2.00
2023-03-31T19:59:36.976Z,2.23
2023-03-31T20:02:05.587Z,2.20
2023-03-31T20:04:33.984Z,2.20
2023-03-31T20:07:01.964Z,1.97
2023-03-31T20:09:29.830Z,2.60
2023-03-31T20:11:59.458Z,1.93
2023-03-31T20:14:28.251Z,1.50
2023-03-31T20:16:56.212Z,1.70
2023-03-31T20:19:24.094Z,1.17
2023-03-31T20:21:56.063Z,1.13
2023-03-31T20:24:24.089Z,0.87
2023-03-31T20:26:52.006Z,1.30
2023-03-31T20:29:22.050Z,1.40
2023-03-31T20:31:50.444Z,1.43
2023-03-31T20:34:19.668Z,1.53
2023-03-31T20:36:51.538Z,1.07
2023-03-31T20:39:20.440Z,0.73
2023-03-31T20:41:50.033Z,0.87
2023-03-31T20:44:18.770Z,0.80
2023-03-31T20:46:48.553Z,1.00
2023-03-31T20:49:16.497Z,1.20
2023-03-31T20:51:45.724Z,1.00
2023-03-31T20:54:13.633Z,0.93
2023-03-31T20:56:42.449Z,0.83
2023-03-31T20:59:13.011Z,0.80
2023-03-31T21:01:42.577Z,0.67
2023-03-31T21:04:12.831Z,0.80
2023-03-31T21:06:42.881Z,0.53
2023-03-31T21:09:12.664Z,0.60
2023-03-31T21:11:41.542Z,0.73
2023-03-31T21:14:12.376Z,0.53
2023-03-31T21:16:40.692Z,0.43
2023-03-31T21:19:08.660Z,0.70
2023-03-31T21:21:41.071Z,0.63
2023-03-31T21:24:09.961Z,0.60
2023-03-31T21:26:37.820Z,0.40
2023-03-31T21:29:05.792Z,0.67
2023-03-31T21:31:33.699Z,0.60
2023-03-31T21:34:02.688Z,0.47
2023-03-31T21:36:30.800Z,0.50
2023-03-31T21:39:00.056Z,0.80
2023-03-31T21:41:30.332Z,0.70
2023-03-31T21:44:02.403Z,0.67
2023-03-31T21:46:32.786Z,0.70
2023-03-31T21:49:01.176Z,0.70
2023-03-31T21:51:29.419Z,0.70
2023-03-31T21:53:59.181Z,0.87
2023-03-31T21:56:32.008Z,0.60
2023-03-31T21:59:01.133Z,0.63
2023-03-31T22:01:29.142Z,0.50
2023-03-31T22:03:57.275Z,0.50
2023-03-31T22:06:25.104Z,0.77
2023-03-31T22:08:52.978Z,0.50
2023-03-31T22:11:22.914Z,0.67
2023-03-31T22:13:51.059Z,0.60
2023-03-31T22:16:21.225Z,0.63
2023-03-31T22:18:50.165Z,0.70
2023-03-31T22:21:20.486Z,1.53
2023-03-31T22:23:48.585Z,0.87
2023-03-31T22:26:16.452Z,1.10
2023-03-31T22:28:45.709Z,1.50
2023-03-31T22:31:13.687Z,1.10
2023-03-31T22:33:41.559Z,1.10
2023-03-31T22:36:10.032Z,1.07
2023-03-31T22:38:38.040Z,1.07
2023-03-31T22:41:06.815Z,0.70
2023-03-31T22:43:35.152Z,0.90
2023-03-31T22:46:09.856Z,1.20
2023-03-31T22:48:37.777Z,0.70
2023-03-31T22:51:06.741Z,1.03
2023-03-31T22:53:34.836Z,1.30
2023-03-31T22:56:08.528Z,0.80
2023-03-31T22:58:36.614Z,1.33
2023-03-31T23:01:05.982Z,1.27
2023-03-31T23:03:35.398Z,1.00
2023-03-31T23:06:05.306Z,1.20
2023-03-31T23:08:35.747Z,1.50
2023-03-31T23:11:06.031Z,1.20
2023-03-31T23:13:33.909Z,1.23
2023-03-31T23:16:05.293Z,1.10
2023-03-31T23:18:33.332Z,1.40
2023-03-31T23:21:05.159Z,1.27
2023-03-31T23:23:33.139Z,1.20
2023-03-31T23:26:01.998Z,1.20
2023-03-31T23:28:30.170Z,1.40
2023-03-31T23:30:58.396Z,1.50
2023-03-31T23:33:26.932Z,1.47
2023-03-31T23:36:00.650Z,1.50
2023-03-31T23:38:30.357Z,1.57
2023-03-31T23:40:58.472Z,1.13
2023-03-31T23:43:27.488Z,1.40
2023-03-31T23:45:56.461Z,1.40
2023-03-31T23:48:24.444Z,1.40
2023-03-31T23:50:52.473Z,1.20
2023-03-31T23:53:20.534Z,1.70
2023-03-31T23:55:56.475Z,1.23
2023-03-31T23:58:24.532Z,1.47
